Time;durP1;ratioP1;P1;durP2;ratioP2;P2;SDS_P1;SDS_P2;PMS_P1;PMS_P2;Temp;Humidity;BMP_temperature;BMP_pressure;BME280_temperature;BME280_humidity;BME280_pressure;Samples;Min_cycle;Max_cycle;Signal;HPM_P1;HPM_P2
2021/06/17 00:01:55;;;;;;;3.17;2.52;;;;;;;38.90;44.63;161446.73;1758004;81;21166;-79
2021/06/17 00:04:27;;;;;;;4.10;2.45;;;;;;;38.74;44.87;161403.81;1736465;81;22333;-79
2021/06/17 00:06:59;;;;;;;4.28;2.40;;;;;;;38.69;44.92;161391.77;1734800;81;21987;-79
2021/06/17 00:09:32;;;;;;;5.30;2.65;;;;;;;38.69;44.85;161391.77;1735851;82;21210;-79
2021/06/17 00:12:04;;;;;;;5.40;2.15;;;;;;;38.65;44.80;161379.66;1705500;83;21490;-80
2021/06/17 00:14:36;;;;;;;4.28;2.37;;;;;;;38.61;44.79;161370.28;1735830;82;21213;-79
2021/06/17 00:17:09;;;;;;;4.60;2.77;;;;;;;38.62;44.68;161372.97;1700376;83;21674;-79
2021/06/17 00:19:43;;;;;;;5.35;2.30;;;;;;;38.62;44.66;161372.97;1704891;83;21240;-79
2021/06/17 00:22:15;;;;;;;3.37;2.30;;;;;;;38.59;44.69;161364.91;1717026;83;21175;-79
2021/06/17 00:24:47;;;;;;;4.10;2.60;;;;;;;38.51;44.76;161343.50;1717911;83;21223;-79
2021/06/17 00:27:19;;;;;;;2.72;2.25;;;;;;;38.58;44.73;161362.23;1689800;85;21244;-79
2021/06/17 00:29:52;;;;;;;4.72;2.45;;;;;;;38.53;44.74;161347.48;1704908;83;21321;-80
2021/06/17 00:32:24;;;;;;;3.00;2.65;;;;;;;38.46;44.84;161330.06;1706800;83;21189;-79
2021/06/17 00:34:56;;;;;;;2.72;2.25;;;;;;;38.40;44.85;161314.02;1711064;83;21301;-79
2021/06/17 00:37:29;;;;;;;5.95;2.12;;;;;;;38.34;44.99;161296.59;1701695;83;21405;-79
2021/06/17 00:40:02;;;;;;;4.08;2.20;;;;;;;38.34;44.92;161296.59;1735698;82;21336;-78
2021/06/17 00:42:36;;;;;;;2.98;2.30;;;;;;;38.31;44.95;161288.53;1696526;83;21235;-79
2021/06/17 00:45:13;;;;;;;3.12;2.47;;;;;;;38.30;44.97;161285.86;1734631;81;21277;-79
2021/06/17 00:47:46;;;;;;;4.03;2.50;;;;;;;38.32;44.93;161291.22;1766365;80;21178;-79
2021/06/17 00:50:19;;;;;;;4.60;2.75;;;;;;;38.31;44.90;161289.86;1746900;82;21221;-78
2021/06/17 00:52:51;;;;;;;3.70;2.10;;;;;;;38.22;44.89;161265.75;1741375;80;21272;-79
2021/06/17 00:55:25;;;;;;;3.98;2.12;;;;;;;38.20;44.86;161260.33;1703108;84;21195;-79
2021/06/17 00:57:57;;;;;;;2.30;2.08;;;;;;;38.17;44.81;161250.97;1679683;83;21184;-78
2021/06/17 01:00:29;;;;;;;2.22;1.80;;;;;;;38.19;44.73;161256.33;1703570;84;21364;-78
2021/06/17 01:03:01;;;;;;;6.65;2.65;;;;;;;38.17;44.65;161252.33;1685358;84;21723;-78
2021/06/17 01:05:34;;;;;;;2.50;2.00;;;;;;;38.15;44.62;161245.59;1721635;82;21183;-80
2021/06/17 01:08:31;;;;;;;3.22;2.30;;;;;;;38.16;44.59;161249.64;1710043;83;21318;-80
2021/06/17 01:11:33;;;;;;;3.75;1.85;;;;;;;38.17;44.48;161252.33;1728844;83;21733;-79
2021/06/17 01:14:27;;;;;;;5.85;2.42;;;;;;;38.14;44.48;161242.91;1699617;83;21416;-79
2021/06/17 01:17:09;;;;;;;4.60;2.10;;;;;;;38.09;44.53;161229.55;1713832;84;21197;-79
2021/06/17 01:20:05;;;;;;;2.87;2.30;;;;;;;38.13;44.50;161241.59;1714125;82;21177;-79
2021/06/17 01:23:20;;;;;;;4.10;2.30;;;;;;;38.17;44.54;161250.97;1728494;83;21360;-78
2021/06/17 01:26:27;;;;;;;4.28;2.30;;;;;;;38.13;44.59;161241.59;1765454;80;21356;-78
2021/06/17 01:29:00;;;;;;;4.92;2.37;;;;;;;38.08;44.73;161226.86;1757841;81;21321;-79
2021/06/17 01:31:35;;;;;;;3.92;2.27;;;;;;;38.00;44.80;161206.75;1757722;81;21385;-78
2021/06/17 01:34:07;;;;;;;2.80;2.12;;;;;;;38.00;44.74;161205.44;1771716;80;21187;-79
2021/06/17 01:36:49;;;;;;;3.45;2.37;;;;;;;37.91;44.89;161181.28;1763277;81;21447;-79
2021/06/17 01:39:22;;;;;;;2.58;2.08;;;;;;;37.89;44.95;161174.59;1734060;81;21937;-78
2021/06/17 01:41:54;;;;;;;3.67;2.00;;;;;;;37.82;45.04;161155.88;1705090;83;21205;-79
2021/06/17 01:44:26;;;;;;;4.87;2.40;;;;;;;37.88;44.93;161171.92;1706809;84;21205;-78
2021/06/17 01:46:58;;;;;;;2.10;1.90;;;;;;;37.82;44.97;161157.19;1703663;84;22598;-78
2021/06/17 01:49:31;;;;;;;3.37;2.17;;;;;;;37.84;44.91;161162.55;1735204;82;21182;-80
2021/06/17 01:52:04;;;;;;;4.55;2.45;;;;;;;37.86;44.86;161167.92;1761305;80;21292;-79
2021/06/17 01:54:41;;;;;;;6.00;2.75;;;;;;;37.91;44.78;161179.97;1672330;86;21901;-79
2021/06/17 01:57:15;;;;;;;2.40;2.08;;;;;;;37.93;44.72;161185.34;1697338;83;21770;-79
2021/06/17 01:59:49;;;;;;;2.67;2.17;;;;;;;37.93;44.67;161186.66;1705051;84;21214;-79
2021/06/17 02:02:21;;;;;;;2.65;2.30;;;;;;;37.91;44.71;161179.97;1698450;83;21275;-79
2021/06/17 02:04:54;;;;;;;3.42;2.25;;;;;;;37.93;44.72;161185.34;1709823;83;21866;-79
2021/06/17 02:07:26;;;;;;;4.67;2.90;;;;;;;37.95;44.79;161192.02;1708571;83;21789;-79
2021/06/17 02:09:59;;;;;;;4.00;2.87;;;;;;;37.90;45.00;161178.66;1688584;83;21270;-78
2021/06/17 02:12:31;;;;;;;4.15;2.37;;;;;;;37.89;45.08;161174.59;1705331;84;21210;-79
2021/06/17 02:15:05;;;;;;;4.10;2.67;;;;;;;37.88;45.14;161173.28;1747268;80;21229;-79
2021/06/17 02:17:38;;;;;;;3.58;2.42;;;;;;;37.93;45.07;161185.34;1770638;80;21353;-79
2021/06/17 02:20:11;;;;;;;3.05;2.27;;;;;;;37.85;45.13;161165.23;1737535;81;21205;-79
2021/06/17 02:22:43;;;;;;;2.58;2.00;;;;;;;37.84;45.09;161162.55;1736221;82;21304;-79
2021/06/17 02:25:17;;;;;;;2.98;2.15;;;;;;;37.82;45.15;161157.19;1772507;80;21301;-79
2021/06/17 02:27:53;;;;;;;3.58;2.40;;;;;;;37.86;45.09;161166.55;1757229;81;21264;-79
2021/06/17 02:30:27;;;;;;;2.80;2.27;;;;;;;37.93;44.98;161185.34;1703374;83;21950;-78
2021/06/17 02:33:01;;;;;;;4.12;2.45;;;;;;;38.08;44.66;161228.17;1773033;80;21449;-79
2021/06/17 02:35:33;;;;;;;5.97;2.47;;;;;;;37.95;44.86;161190.70;1766082;81;21166;-79
2021/06/17 02:38:08;;;;;;;6.35;2.40;;;;;;;37.90;44.96;161178.66;1700502;84;21543;-78
2021/06/17 02:40:43;;;;;;;2.67;2.35;;;;;;;37.85;45.04;161163.92;1735910;81;21185;-78
2021/06/17 02:43:19;;;;;;;3.75;2.20;;;;;;;37.89;45.00;161175.97;1703264;84;21392;-79
2021/06/17 02:45:51;;;;;;;4.08;2.05;;;;;;;37.92;45.01;161183.97;1714914;83;21175;-78
2021/06/17 02:48:24;;;;;;;2.55;2.33;;;;;;;37.92;45.10;161182.66;1703403;83;21302;-79
2021/06/17 02:50:56;;;;;;;5.35;2.42;;;;;;;37.92;45.15;161183.97;1746052;81;21304;-79
2021/06/17 02:53:28;;;;;;;3.60;2.40;;;;;;;37.86;45.27;161166.55;1767776;81;21360;-78
2021/06/17 02:56:00;;;;;;;4.97;2.22;;;;;;;37.89;45.31;161174.59;1771457;80;21761;-79
2021/06/17 02:58:57;;;;;;;4.92;2.05;;;;;;;37.89;45.39;161174.59;1769570;81;21186;-79
2021/06/17 03:01:46;;;;;;;3.65;2.17;;;;;;;37.90;45.43;161177.28;1738657;81;21205;-79
2021/06/17 03:04:31;;;;;;;4.62;2.02;;;;;;;37.89;45.54;161175.97;1700759;84;21211;-78
2021/06/17 03:07:04;;;;;;;2.83;2.17;;;;;;;37.93;45.58;161185.34;1752688;80;21187;-79
2021/06/17 03:09:41;;;;;;;3.35;2.70;;;;;;;38.03;45.54;161213.44;1760327;80;21861;-79
2021/06/17 03:12:15;;;;;;;4.50;2.70;;;;;;;38.01;45.59;161208.13;1772376;80;21341;-79
2021/06/17 03:14:49;;;;;;;3.50;2.60;;;;;;;38.03;45.70;161214.81;1741376;80;21242;-79
2021/06/17 03:17:21;;;;;;;2.40;2.20;;;;;;;38.08;45.70;161228.17;1701276;84;21191;-79
2021/06/17 03:19:56;;;;;;;2.67;2.37;;;;;;;38.09;45.73;161230.86;1681771;84;22492;-79
2021/06/17 03:22:29;;;;;;;3.35;2.37;;;;;;;38.05;45.91;161218.81;1703842;83;21155;-79
2021/06/17 03:25:05;;;;;;;3.02;2.58;;;;;;;38.10;45.95;161232.22;1688687;83;21176;-80
2021/06/17 03:27:39;;;;;;;5.53;2.60;;;;;;;38.12;45.93;161238.91;1705486;83;21222;-79
2021/06/17 03:30:12;;;;;;;2.45;2.25;;;;;;;38.10;46.02;161232.22;1692028;83;21187;-79
2021/06/17 03:32:44;;;;;;;3.35;2.72;;;;;;;38.14;46.12;161242.91;1707027;82;21843;-80
2021/06/17 03:35:18;;;;;;;3.15;2.10;;;;;;;38.13;46.22;161241.59;1726797;83;21259;-79
2021/06/17 03:37:51;;;;;;;6.78;2.50;;;;;;;38.18;46.18;161255.02;1684213;84;21241;-78
2021/06/17 03:40:25;;;;;;;3.70;2.77;;;;;;;38.12;46.38;161238.91;1766231;81;21198;-79
2021/06/17 03:42:58;;;;;;;3.72;2.45;;;;;;;37.99;46.65;161204.08;1756043;80;21273;-79
2021/06/17 03:45:30;;;;;;;5.10;2.50;;;;;;;38.14;46.51;161244.28;1747255;79;21405;-78
2021/06/17 03:48:03;;;;;;;4.12;2.55;;;;;;;38.13;46.60;161240.28;1748026;79;21781;-80
2021/06/17 03:50:36;;;;;;;2.95;2.27;;;;;;;38.10;46.72;161233.53;1746429;79;21332;-78
2021/06/17 03:53:09;;;;;;;4.12;2.50;;;;;;;38.12;46.80;161238.91;1745275;80;21213;-79
2021/06/17 03:55:43;;;;;;;3.90;2.58;;;;;;;38.16;46.82;161249.64;1743778;80;21721;-79
2021/06/17 03:58:15;;;;;;;3.08;2.12;;;;;;;38.14;47.03;161244.28;1746074;81;21226;-79
2021/06/17 04:00:48;;;;;;;3.95;2.12;;;;;;;38.15;47.03;161246.97;1744130;81;21352;-79
2021/06/17 04:03:20;;;;;;;3.70;2.40;;;;;;;38.26;46.94;161275.13;1755085;80;22386;-80
2021/06/17 04:05:53;;;;;;;6.03;2.50;;;;;;;38.24;47.08;161271.12;1746823;81;21188;-79
2021/06/17 04:08:35;;;;;;;3.20;2.30;;;;;;;38.27;47.13;161279.17;1745119;81;21380;-80
2021/06/17 04:11:08;;;;;;;3.12;2.30;;;;;;;38.25;47.30;161272.48;1747148;80;21185;-81
2021/06/17 04:13:44;;;;;;;16.15;3.50;;;;;;;38.28;47.55;161281.84;1741828;82;21273;-78
2021/06/17 04:16:25;;;;;;;13.05;3.40;;;;;;;38.37;47.68;161305.97;1770849;80;21158;-83
2021/06/17 04:18:56;;;;;;;16.25;2.65;;;;;;;38.42;47.84;161319.38;1739873;80;21154;-80
2021/06/17 04:21:29;;;;;;;4.22;2.50;;;;;;;38.36;48.18;161303.28;1726148;82;22405;-79
2021/06/17 04:24:05;;;;;;;5.30;2.40;;;;;;;38.50;47.80;161340.81;1729178;83;21714;-79
2021/06/17 04:26:35;;;;;;;8.18;2.47;;;;;;;38.51;47.76;161343.50;1729840;81;21733;-80
2021/06/17 04:29:08;;;;;;;4.78;2.58;;;;;;;38.54;47.85;161350.17;1741631;82;21204;-80
2021/06/17 04:31:41;;;;;;;6.67;2.70;;;;;;;38.55;47.93;161352.86;1724008;81;21197;-80
2021/06/17 04:34:13;;;;;;;3.33;2.30;;;;;;;38.64;47.77;161378.34;1772019;81;21182;-79
2021/06/17 04:36:47;;;;;;;2.75;2.30;;;;;;;38.70;47.58;161394.45;1761695;81;21844;-79
2021/06/17 04:39:20;;;;;;;3.67;2.30;;;;;;;38.69;47.62;161391.77;1752541;81;21174;-79
2021/06/17 04:41:52;;;;;;;5.50;1.95;;;;;;;38.71;47.64;161397.13;1771031;80;21347;-79
2021/06/17 04:44:25;;;;;;;2.70;2.20;;;;;;;38.75;47.70;161406.50;1772532;80;21345;-80
2021/06/17 04:46:57;;;;;;;3.15;2.40;;;;;;;38.79;47.70;161417.25;1772095;81;21170;-79
2021/06/17 04:49:30;;;;;;;3.33;2.02;;;;;;;38.80;47.86;161419.94;1772382;81;21381;-80
2021/06/17 04:52:06;;;;;;;4.30;2.42;;;;;;;38.72;48.15;161398.45;1771316;80;21213;-79
2021/06/17 04:54:38;;;;;;;3.02;1.90;;;;;;;38.83;48.05;161427.98;1770771;81;21321;-79
2021/06/17 04:57:10;;;;;;;6.92;2.05;;;;;;;38.92;47.81;161453.42;1752223;81;21254;-79
2021/06/17 04:59:42;;;;;;;4.22;1.95;;;;;;;38.86;48.00;161437.36;1733809;83;21328;-82
2021/06/17 05:02:15;;;;;;;3.55;2.15;;;;;;;39.64;46.71;161646.59;1706597;82;21230;-82
2021/06/17 05:04:47;;;;;;;3.60;2.00;;;;;;;39.04;47.92;161485.59;1772521;79;21187;-81
2021/06/17 05:12:42;;;;;;;4.20;2.35;;;;;;;38.99;49.08;161473.53;1739103;81;21252;-82
2021/06/17 05:15:15;;;;;;;3.55;2.22;;;;;;;39.11;48.97;161504.44;1732083;81;21205;-82
2021/06/17 05:17:47;;;;;;;9.28;2.95;;;;;;;39.24;48.55;161540.63;1732127;83;21189;-82
2021/06/17 05:20:20;;;;;;;5.20;2.25;;;;;;;39.20;48.71;161528.56;1731995;83;21741;-82
2021/06/17 05:22:52;;;;;;;5.53;2.70;;;;;;;39.32;48.62;161562.06;1734488;81;21828;-85
2021/06/17 05:25:24;;;;;;;3.02;2.00;;;;;;;39.29;48.68;161554.05;1704796;84;21312;-82
2021/06/17 05:27:56;;;;;;;2.83;2.42;;;;;;;39.27;49.07;161548.69;1772211;80;21219;-83
2021/06/17 05:30:29;;;;;;;4.62;2.42;;;;;;;39.23;49.42;161537.94;1772968;81;21793;-81
2021/06/17 05:33:01;;;;;;;3.22;2.05;;;;;;;39.37;49.15;161575.48;1773290;80;21392;-82
2021/06/17 05:35:33;;;;;;;5.10;2.55;;;;;;;39.37;49.22;161575.48;1764274;80;21169;-82
2021/06/17 05:38:06;;;;;;;3.40;2.12;;;;;;;39.52;48.97;161614.41;1738891;80;21376;-83
2021/06/17 05:40:38;;;;;;;4.28;2.15;;;;;;;39.57;48.85;161629.16;1759226;81;21397;-83
2021/06/17 05:43:10;;;;;;;5.85;2.37;;;;;;;39.60;48.70;161637.22;1738530;81;21411;-84
2021/06/17 05:45:44;;;;;;;5.40;2.67;;;;;;;39.67;48.72;161655.97;1690766;83;21705;-83
2021/06/17 05:48:16;;;;;;;3.52;2.42;;;;;;;39.80;48.87;161689.53;1685722;82;21181;-83
2021/06/17 05:50:49;;;;;;;5.05;2.30;;;;;;;39.85;48.78;161702.91;1698948;82;21202;-84
2021/06/17 05:53:22;;;;;;;3.30;2.60;;;;;;;39.94;48.62;161728.47;1682570;82;21257;-86
2021/06/17 05:55:56;;;;;;;4.22;2.70;;;;;;;39.93;48.77;161724.47;1704568;83;21396;-84
2021/06/17 05:58:29;;;;;;;7.78;2.47;;;;;;;39.91;49.12;161720.36;1707305;82;21320;-84
2021/06/17 06:01:01;;;;;;;5.92;2.40;;;;;;;39.88;49.18;161710.97;1704561;83;21271;-83
2021/06/17 06:03:35;;;;;;;5.08;2.50;;;;;;;39.92;49.37;161721.72;1710531;82;21879;-83
2021/06/17 06:06:07;;;;;;;5.05;2.60;;;;;;;39.99;49.12;161741.84;1699041;83;21684;-83
2021/06/17 06:08:40;;;;;;;2.80;2.30;;;;;;;39.94;49.23;161729.78;1688732;82;21230;-82
2021/06/17 06:11:12;;;;;;;3.42;2.40;;;;;;;39.93;49.75;161724.47;1689241;82;21829;-83
2021/06/17 06:13:46;;;;;;;4.60;2.47;;;;;;;39.96;49.60;161735.16;1687885;82;21265;-81
2021/06/17 06:16:21;;;;;;;7.97;2.72;;;;;;;39.92;49.70;161721.72;1701034;82;21210;-80
2021/06/17 06:18:53;;;;;;;4.28;2.40;;;;;;;39.58;50.22;161630.53;1710005;82;21295;-80
2021/06/17 06:21:26;;;;;;;3.15;2.52;;;;;;;40.40;49.40;161853.25;1699496;83;21159;-80
2021/06/17 06:24:02;;;;;;;11.25;2.72;;;;;;;40.18;49.63;161792.86;1710118;82;21163;-80
2021/06/17 06:26:40;;;;;;;3.30;2.33;;;;;;;40.56;48.66;161896.20;1702250;83;21702;-79
2021/06/17 06:29:12;;;;;;;4.05;2.70;;;;;;;40.48;48.74;161873.38;1714885;82;21883;-77
2021/06/17 06:31:46;;;;;;;2.67;2.10;;;;;;;40.86;48.29;161976.75;1699277;83;21219;-79
2021/06/17 06:34:19;;;;;;;4.28;2.37;;;;;;;40.86;48.29;161976.75;1709321;82;21213;-79
2021/06/17 06:36:52;;;;;;;5.35;2.80;;;;;;;41.00;47.50;162014.34;1685244;82;21193;-78
2021/06/17 06:39:24;;;;;;;3.05;2.75;;;;;;;41.00;47.50;162014.34;1682976;82;21209;-78
2021/06/17 06:41:58;;;;;;;4.72;2.47;;;;;;;40.86;47.94;161976.75;1702436;82;21785;-81
2021/06/17 06:44:31;;;;;;;4.20;2.75;;;;;;;40.39;49.32;161850.61;1683495;82;21193;-79
2021/06/17 06:47:07;;;;;;;3.70;2.50;;;;;;;40.82;48.12;161964.69;1678783;82;21212;-78
2021/06/17 06:49:40;;;;;;;3.75;3.27;;;;;;;40.93;48.00;161996.89;1704318;83;21392;-80
2021/06/17 06:52:14;;;;;;;5.10;2.47;;;;;;;40.74;48.51;161944.59;1707847;82;21420;-79
2021/06/17 06:54:46;;;;;;;13.72;3.10;;;;;;;40.78;48.49;161955.30;1700223;82;21713;-79
2021/06/17 06:57:19;;;;;;;4.33;2.50;;;;;;;41.05;47.90;162027.78;1710985;81;21406;-80
2021/06/17 06:59:52;;;;;;;4.30;2.37;;;;;;;41.05;47.90;162027.78;1699896;83;21278;-82
2021/06/17 07:02:26;;;;;;;5.47;2.40;;;;;;;41.15;47.57;162054.69;1708369;81;21839;-80
2021/06/17 07:04:59;;;;;;;5.35;2.77;;;;;;;41.06;47.72;162030.48;1696906;83;21227;-80
2021/06/17 07:07:32;;;;;;;5.95;2.70;;;;;;;41.17;48.08;162060.06;1711256;81;22360;-80
2021/06/17 07:10:07;;;;;;;4.45;2.70;;;;;;;41.32;48.05;162101.66;1697734;82;21211;-78
2021/06/17 07:12:44;;;;;;;5.67;2.70;;;;;;;41.32;48.05;162101.66;1708719;82;21427;-80
2021/06/17 07:15:18;;;;;;;5.75;2.50;;;;;;;41.29;48.03;162092.28;1700988;83;21187;-80
2021/06/17 07:17:52;;;;;;;5.47;3.02;;;;;;;41.28;48.15;162089.58;1703839;83;21769;-80
2021/06/17 07:20:25;;;;;;;2.80;2.20;;;;;;;41.41;48.07;162124.50;1711782;82;21245;-81
2021/06/17 07:22:58;;;;;;;3.58;2.30;;;;;;;41.36;47.45;162112.42;1699424;83;21175;-82
2021/06/17 07:25:30;;;;;;;4.95;2.62;;;;;;;41.36;47.45;162112.42;1711780;82;21363;-84
2021/06/17 07:28:03;;;;;;;4.40;2.52;;;;;;;41.22;48.33;162073.45;1702442;82;21250;-81
2021/06/17 07:30:37;;;;;;;3.10;2.50;;;;;;;41.26;48.71;162084.20;1714244;81;21383;-80
2021/06/17 07:33:10;;;;;;;3.40;2.40;;;;;;;41.32;48.74;162101.66;1698034;82;21286;-76
2021/06/17 07:35:44;;;;;;;2.90;2.08;;;;;;;41.38;48.62;162116.42;1711018;82;21202;-79
2021/06/17 07:38:17;;;;;;;3.35;2.30;;;;;;;41.43;48.33;162129.88;1704586;83;21828;-78
2021/06/17 07:40:49;;;;;;;4.72;2.42;;;;;;;41.72;47.82;162207.78;1714464;81;21301;-81
2021/06/17 07:43:21;;;;;;;3.17;2.27;;;;;;;41.56;47.87;162166.16;1697227;83;21266;-83
2021/06/17 07:45:54;;;;;;;3.42;2.40;;;;;;;41.59;47.78;162172.86;1707116;82;21899;-81
2021/06/17 07:48:26;;;;;;;2.90;2.60;;;;;;;41.60;47.93;162175.55;1698626;83;21749;-83
2021/06/17 07:50:59;;;;;;;7.97;3.02;;;;;;;41.90;47.27;162258.78;1747955;80;21225;-82
2021/06/17 07:53:33;;;;;;;4.42;2.20;;;;;;;42.03;47.22;162293.75;1745711;81;21428;-83
2021/06/17 07:56:05;;;;;;;4.65;2.47;;;;;;;42.13;46.94;162320.61;1750056;81;21380;-79
2021/06/17 07:58:37;;;;;;;5.37;2.47;;;;;;;42.19;46.84;162336.75;1746378;79;21428;-85
2021/06/17 08:01:11;;;;;;;5.67;2.55;;;;;;;42.23;46.86;162346.16;1745698;80;21742;-83
2021/06/17 08:03:48;;;;;;;2.52;2.17;;;;;;;42.27;46.82;162358.23;1748864;79;21341;-81
2021/06/17 08:06:22;;;;;;;7.92;2.50;;;;;;;42.33;46.58;162374.37;1761844;79;21356;-86
2021/06/17 08:08:57;;;;;;;3.45;2.45;;;;;;;42.31;46.58;162367.63;1742899;81;21781;-79
2021/06/17 08:11:29;;;;;;;2.50;2.30;;;;;;;42.34;46.12;162377.13;1751496;79;21409;-87
2021/06/17 08:14:03;;;;;;;3.02;2.55;;;;;;;42.44;45.71;162402.61;1746487;79;21841;-84
2021/06/17 08:16:36;;;;;;;4.85;2.40;;;;;;;42.51;45.35;162422.77;1746197;79;21254;-84
2021/06/17 08:19:08;;;;;;;5.25;2.77;;;;;;;42.56;44.94;162436.22;1745113;81;21793;-81
2021/06/17 08:21:41;;;;;;;5.65;2.80;;;;;;;42.64;44.88;162456.37;1743884;81;21392;-83
2021/06/17 08:24:13;;;;;;;4.42;2.20;;;;;;;42.62;45.22;162452.31;1747112;81;21202;-86
2021/06/17 08:26:47;;;;;;;5.05;2.80;;;;;;;42.64;45.44;162456.37;1744655;81;21349;-83
2021/06/17 08:29:19;;;;;;;3.62;2.42;;;;;;;42.64;45.65;162456.37;1744200;81;21250;-81
2021/06/17 08:31:52;;;;;;;3.25;2.40;;;;;;;42.78;45.73;162494.02;1747004;80;21682;-83
2021/06/17 08:34:25;;;;;;;5.08;2.55;;;;;;;42.81;45.96;162503.45;1751530;81;21269;-82
2021/06/17 08:36:57;;;;;;;4.22;2.42;;;;;;;42.92;45.65;162533.02;1748638;81;21385;-85
2021/06/17 08:39:30;;;;;;;5.55;2.60;;;;;;;42.95;45.58;162541.05;1746636;81;21368;-85
2021/06/17 08:42:05;;;;;;;5.17;2.75;;;;;;;42.98;45.16;162549.13;1748142;79;21266;-86
2021/06/17 08:44:38;;;;;;;9.75;2.65;;;;;;;43.04;45.29;162566.59;1742986;81;21273;-88
2021/06/17 08:47:11;;;;;;;8.05;2.98;;;;;;;43.20;45.21;162608.30;1746840;79;21214;-87
2021/06/17 08:49:46;;;;;;;4.70;2.58;;;;;;;43.24;45.50;162620.39;1753430;80;21340;-86
2021/06/17 08:52:19;;;;;;;3.47;2.37;;;;;;;43.28;45.30;162629.84;1741419;81;21742;-85
2021/06/17 08:54:51;;;;;;;3.75;2.60;;;;;;;43.30;44.98;162636.55;1747305;81;21229;-83
2021/06/17 08:57:23;;;;;;;4.25;2.35;;;;;;;43.65;43.86;162730.69;1745499;80;21179;-84
2021/06/17 08:59:56;;;;;;;7.70;2.90;;;;;;;43.79;43.96;162766.97;1748498;80;21185;-85
2021/06/17 09:02:35;;;;;;;3.92;2.58;;;;;;;43.90;43.65;162797.97;1742971;81;21690;-87
2021/06/17 09:05:17;;;;;;;3.22;2.62;;;;;;;43.99;42.88;162822.16;1748724;81;21166;-86
2021/06/17 09:07:49;;;;;;;3.75;2.60;;;;;;;44.03;42.89;162834.25;1750757;81;21195;-87
2021/06/17 09:10:22;;;;;;;3.70;2.55;;;;;;;44.11;42.65;162854.44;1739572;81;21368;-87
2021/06/17 09:12:57;;;;;;;2.45;2.25;;;;;;;44.11;42.83;162854.44;1750001;81;21417;-84
2021/06/17 09:15:45;;;;;;;3.10;2.37;;;;;;;44.12;42.60;162857.12;1747224;81;21390;-87
2021/06/17 09:18:23;;;;;;;8.20;2.37;;;;;;;43.94;42.44;162810.06;1744566;81;21241;-84
2021/06/17 09:21:05;;;;;;;2.45;2.15;;;;;;;43.90;42.17;162797.97;1748542;81;21213;-84
2021/06/17 09:23:48;;;;;;;4.65;2.37;;;;;;;43.82;42.33;162776.38;1752602;81;21272;-84
2021/06/17 09:26:24;;;;;;;4.45;2.40;;;;;;;43.83;42.69;162779.06;1750011;81;21234;-88
2021/06/17 09:29:11;;;;;;;3.92;2.47;;;;;;;43.93;42.53;162806.00;1743684;81;21353;-85
2021/06/17 09:31:42;;;;;;;3.92;2.70;;;;;;;43.92;42.01;162804.67;1746131;81;21171;-82
2021/06/17 09:34:15;;;;;;;6.58;2.70;;;;;;;43.91;41.71;162801.98;1750334;80;21273;-85
2021/06/17 09:36:47;;;;;;;4.65;2.42;;;;;;;43.95;41.66;162812.75;1751035;81;21183;-86
2021/06/17 09:39:21;;;;;;;3.72;2.20;;;;;;;43.88;41.86;162792.53;1753438;81;21337;-84
2021/06/17 09:41:54;;;;;;;2.62;2.30;;;;;;;43.95;41.46;162812.75;1755370;81;21360;-84
2021/06/17 09:44:46;;;;;;;4.67;2.37;;;;;;;43.97;41.64;162818.14;1767906;79;21249;-86
2021/06/17 09:47:26;;;;;;;2.47;2.27;;;;;;;44.05;41.60;162839.64;1759427;81;21278;-88
2021/06/17 09:49:54;;;;;;;6.15;2.67;;;;;;;44.07;41.77;162845.03;1742987;81;21377;-86
2021/06/17 09:52:38;;;;;;;4.75;2.50;;;;;;;44.15;41.38;162866.53;1743178;80;21828;-86
2021/06/17 09:55:11;;;;;;;7.95;3.08;;;;;;;44.22;41.37;162885.33;1741925;81;21376;-87
2021/06/17 09:57:44;;;;;;;4.03;2.35;;;;;;;44.26;40.94;162894.84;1747650;81;21178;-87
2021/06/17 10:00:17;;;;;;;5.28;2.40;;;;;;;44.28;40.56;162900.17;1750547;81;21349;-87
2021/06/17 10:02:50;;;;;;;5.10;2.67;;;;;;;44.35;40.61;162919.03;1743929;80;21888;-88
2021/06/17 10:05:26;;;;;;;3.40;2.25;;;;;;;44.31;40.59;162909.63;1744160;81;21270;-87
2021/06/17 10:07:58;;;;;;;3.22;2.22;;;;;;;44.29;40.04;162902.87;1735387;81;21336;-86
2021/06/17 10:10:35;;;;;;;3.95;1.95;;;;;;;44.29;39.80;162902.87;1749217;81;21361;-86
2021/06/17 10:13:09;;;;;;;2.85;2.10;;;;;;;44.31;40.04;162909.63;1733585;81;21222;-84
2021/06/17 10:15:42;;;;;;;4.08;2.33;;;;;;;44.34;39.92;162917.66;1742038;81;21170;-87
2021/06/17 10:18:15;;;;;;;2.15;1.92;;;;;;;44.38;40.21;162927.13;1742399;81;21445;-85
2021/06/17 10:20:50;;;;;;;3.52;2.30;;;;;;;44.36;40.40;162923.06;1747152;81;21350;-86
2021/06/17 10:23:22;;;;;;;5.97;3.10;;;;;;;44.46;40.19;162949.94;1747708;79;21757;-85
2021/06/17 10:25:54;;;;;;;2.35;2.08;;;;;;;44.57;39.79;162979.53;1752705;81;21225;-84
2021/06/17 10:28:45;;;;;;;6.85;2.10;;;;;;;44.58;39.25;162980.91;1743960;80;21222;-87
2021/06/17 10:31:47;;;;;;;4.28;2.00;;;;;;;44.65;39.21;163001.14;1749369;81;21356;-86
2021/06/17 10:34:30;;;;;;;5.33;2.17;;;;;;;44.69;39.32;163011.86;1743142;79;21313;-87
2021/06/17 10:37:28;;;;;;;5.95;2.35;;;;;;;44.78;39.91;163036.13;1741939;81;22215;-83
2021/06/17 10:40:13;;;;;;;7.45;2.27;;;;;;;44.83;40.02;163049.55;1750470;81;21198;-84
2021/06/17 10:42:57;;;;;;;3.85;2.35;;;;;;;44.89;39.65;163067.03;1751044;81;21199;-83
2021/06/17 10:45:43;;;;;;;5.20;2.10;;;;;;;44.90;39.37;163069.72;1734087;81;21911;-83
2021/06/17 10:48:28;;;;;;;4.65;2.15;;;;;;;44.98;39.50;163089.92;1744429;81;21750;-84
2021/06/17 10:51:10;;;;;;;2.95;2.12;;;;;;;45.01;38.92;163099.37;1747761;80;21911;-82
2021/06/17 10:53:49;;;;;;;2.62;2.37;;;;;;;45.06;38.62;163111.47;1742537;80;21904;-83
2021/06/17 10:56:26;;;;;;;3.58;2.00;;;;;;;44.96;38.62;163084.53;1751229;81;21202;-87
2021/06/17 10:58:58;;;;;;;2.90;2.05;;;;;;;45.01;38.61;163099.37;1745248;81;21215;-86
2021/06/17 11:01:42;;;;;;;2.98;2.25;;;;;;;45.04;38.92;163106.09;1746463;81;21197;-87
2021/06/17 11:04:22;;;;;;;2.55;2.10;;;;;;;45.26;38.80;163165.28;1742933;80;21190;-84
2021/06/17 11:07:06;;;;;;;3.98;2.08;;;;;;;45.22;38.52;163154.56;1750612;81;21147;-86
2021/06/17 11:09:46;;;;;;;2.65;1.82;;;;;;;45.28;38.48;163172.05;1747923;81;21231;-84
2021/06/17 11:12:27;;;;;;;2.87;2.10;;;;;;;45.33;38.41;163184.16;1746354;81;21332;-87
2021/06/17 11:15:02;;;;;;;4.47;2.47;;;;;;;45.32;38.20;163182.78;1748196;81;21348;-84
2021/06/17 11:17:41;;;;;;;11.65;3.62;;;;;;;45.33;38.04;163185.47;1746806;79;21266;-87
2021/06/17 11:20:19;;;;;;;6.58;2.98;;;;;;;45.45;37.72;163216.50;1747378;81;21225;-84
2021/06/17 11:22:57;;;;;;;5.47;2.75;;;;;;;45.53;37.59;163238.03;1756725;80;21396;-90
2021/06/17 11:25:27;;;;;;;5.00;2.30;;;;;;;45.63;37.46;163264.94;1747045;81;21199;-88
2021/06/17 11:28:06;;;;;;;7.05;2.72;;;;;;;45.63;36.77;163266.31;1755107;79;21230;-86
2021/06/17 11:30:54;;;;;;;3.55;2.27;;;;;;;45.62;36.80;163262.23;1749381;81;21840;-87
2021/06/17 11:33:33;;;;;;;3.30;2.15;;;;;;;45.60;37.31;163256.89;1746247;81;21816;-82
2021/06/17 11:36:09;;;;;;;3.98;2.27;;;;;;;45.64;37.27;163269.00;1726793;81;21365;-80
2021/06/17 11:38:39;;;;;;;4.00;1.90;;;;;;;45.66;37.10;163273.02;1745613;81;21183;-81
2021/06/17 11:41:19;;;;;;;2.02;1.80;;;;;;;45.71;37.10;163286.50;1746878;79;21887;-85
2021/06/17 11:43:57;;;;;;;3.75;1.92;;;;;;;45.57;37.49;163248.81;1754841;81;21293;-84
2021/06/17 11:46:45;;;;;;;7.47;2.67;;;;;;;45.47;37.00;163221.91;1747567;81;21730;-85
2021/06/17 11:49:13;;;;;;;5.55;3.50;;;;;;;45.41;36.67;163205.72;1745223;81;21227;-84
2021/06/17 11:51:53;;;;;;;20.27;8.20;;;;;;;45.33;36.77;163184.16;1753977;81;21241;-84
2021/06/17 11:54:25;;;;;;;16.52;5.87;;;;;;;45.36;36.94;163192.25;1752046;81;21210;-82
2021/06/17 11:57:00;;;;;;;14.33;4.67;;;;;;;45.40;37.55;163204.41;1749845;81;21372;-84
2021/06/17 11:59:36;;;;;;;6.83;2.95;;;;;;;45.49;37.63;163227.28;1740717;81;21328;-85
2021/06/17 12:02:19;;;;;;;5.08;2.22;;;;;;;45.46;37.49;163219.20;1748848;80;21880;-85
2021/06/17 12:05:10;;;;;;;9.15;2.60;;;;;;;45.51;37.55;163234.00;1745055;81;21725;-83
2021/06/17 12:07:44;;;;;;;2.42;2.10;;;;;;;45.51;37.59;163232.63;1744925;81;21364;-84